Who's Online

We have 2 guests online

Aviation WX

[source: ADDS]
METAR
KIAD 302152Z 05009KT 10SM SCT060 SCT250 31/17 A3004 RMK AO2 SLP168 T03060167 =
TAF
KIAD 302101Z 3021/3124 VRB05KT P6SM SCT060 FM310500 VRB04KT P6SM SCT150 FM311900 18005KT P6SM BKN050 =
SR / SS: 00:20 / 13:23 UTC (Washington-Dulles 2016-08-30)

JoomlaWatch Agent

Home Products and Services

This section describes Multilink Systems products and services

 

 

Under construction Please Standby